createdAt,value
2023-02-14T00:01:12.178Z,99296.06
2023-02-14T00:03:40.352Z,99293.44
2023-02-14T00:06:15.431Z,99297.69
2023-02-14T00:08:45.132Z,99293.19
2023-02-14T00:11:13.665Z,99283.13
2023-02-14T00:14:00.739Z,99288.09
2023-02-14T00:16:27.599Z,99289.22
2023-02-14T00:19:03.745Z,99284.09
2023-02-14T00:21:38.913Z,99284.81
2023-02-14T00:24:17.596Z,99269.25
2023-02-14T00:26:44.647Z,99268.66
2023-02-14T00:29:17.751Z,99271.28
2023-02-14T00:31:45.350Z,99269.59
2023-02-14T00:34:14.179Z,99263.06
2023-02-14T00:36:41.135Z,99257.19
2023-02-14T00:39:10.689Z,99261.31
2023-02-14T00:41:38.968Z,99261.56
2023-02-14T00:44:06.322Z,99252.44
2023-02-14T00:46:33.961Z,99247.09
2023-02-14T00:49:01.601Z,99231.03
2023-02-14T00:51:29.021Z,99233.31
2023-02-14T00:53:56.347Z,99222.16
2023-02-14T00:56:23.347Z,99228.16
2023-02-14T00:58:50.378Z,99218.09
2023-02-14T01:01:19.442Z,99216.25
2023-02-14T01:03:47.010Z,99211.94
2023-02-14T01:06:14.026Z,99204.22
2023-02-14T01:08:41.044Z,99203.19
2023-02-14T01:11:16.526Z,99199.78
2023-02-14T01:13:44.709Z,99192.00
2023-02-14T01:16:14.436Z,99192.38
2023-02-14T01:18:42.488Z,99191.88
2023-02-14T01:21:19.226Z,99180.03
2023-02-14T01:23:48.522Z,99177.03
2023-02-14T01:26:15.940Z,99177.41
2023-02-14T01:28:44.110Z,99173.44
2023-02-14T01:31:22.643Z,99172.00
2023-02-14T01:33:50.550Z,99178.22
2023-02-14T01:36:26.304Z,99173.59
2023-02-14T01:38:55.400Z,99167.84
2023-02-14T01:41:24.498Z,99164.59
2023-02-14T01:43:55.294Z,99173.75
2023-02-14T01:46:26.229Z,99172.41
2023-02-14T01:48:58.815Z,99172.13
2023-02-14T01:51:26.150Z,99175.75
2023-02-14T01:53:54.615Z,99177.28
2023-02-14T01:56:28.967Z,99170.72
2023-02-14T01:59:00.502Z,99157.81
2023-02-14T02:01:28.316Z,99171.31
2023-02-14T02:03:58.258Z,99173.16
2023-02-14T02:06:36.178Z,99154.47
2023-02-14T02:09:16.610Z,99149.72
2023-02-14T02:11:44.103Z,99143.84
2023-02-14T02:14:16.923Z,99133.16
2023-02-14T02:17:20.788Z,99136.41
2023-02-14T02:19:54.738Z,99134.06
2023-02-14T02:23:10.490Z,99126.47
2023-02-14T02:25:49.293Z,99121.56
2023-02-14T02:28:45.279Z,99113.53
2023-02-14T02:31:30.701Z,99107.72
2023-02-14T02:34:29.188Z,99096.44
2023-02-14T02:37:16.650Z,99087.69
2023-02-14T02:39:58.327Z,99090.28
2023-02-14T02:42:46.297Z,99086.41
2023-02-14T02:45:26.350Z,99081.31
2023-02-14T02:47:53.197Z,99079.88
2023-02-14T02:50:51.324Z,99083.13
2023-02-14T02:53:27.728Z,99089.88
2023-02-14T02:56:15.830Z,99082.97
2023-02-14T02:59:00.226Z,99085.16
2023-02-14T03:01:33.993Z,99077.28
2023-02-14T03:04:24.171Z,99079.66
2023-02-14T03:06:52.087Z,99071.13
2023-02-14T03:09:24.365Z,99058.75
2023-02-14T03:11:58.725Z,99050.44
2023-02-14T03:15:22.696Z,99063.25
2023-02-14T03:18:30.700Z,99053.31
2023-02-14T03:21:03.275Z,99054.41
2023-02-14T03:23:36.702Z,99056.75
2023-02-14T03:26:35.009Z,99050.75
2023-02-14T03:29:04.691Z,99054.09
2023-02-14T03:31:38.202Z,99039.44
2023-02-14T03:34:22.674Z,99034.38
2023-02-14T03:37:25.929Z,99035.41
2023-02-14T03:40:04.968Z,99026.59
2023-02-14T03:42:40.459Z,99021.81
2023-02-14T03:45:11.056Z,99019.53
2023-02-14T03:47:42.465Z,99018.25
2023-02-14T03:50:18.686Z,99016.31
2023-02-14T03:52:49.452Z,99010.09
2023-02-14T03:55:24.214Z,99023.22
2023-02-14T03:58:10.864Z,99014.88
2023-02-14T04:00:42.001Z,99018.84
2023-02-14T04:03:15.322Z,99019.38
2023-02-14T04:05:46.838Z,99023.63
2023-02-14T04:08:25.265Z,99033.03
2023-02-14T04:10:53.208Z,99028.34
2023-02-14T04:13:20.807Z,99039.41
2023-02-14T04:15:47.813Z,99038.03
2023-02-14T04:18:33.404Z,99043.19
2023-02-14T04:21:00.577Z,99031.28
2023-02-14T04:23:27.805Z,99041.03
2023-02-14T04:25:54.688Z,99045.56
2023-02-14T04:28:21.702Z,99050.75
2023-02-14T04:30:48.606Z,99047.22
2023-02-14T04:33:15.673Z,99044.59
2023-02-14T04:35:42.914Z,99038.28
2023-02-14T04:38:09.965Z,99041.06
2023-02-14T04:40:37.013Z,99035.72
2023-02-14T04:43:04.765Z,99031.69
2023-02-14T04:45:31.660Z,99038.56
2023-02-14T04:47:58.662Z,99041.50
2023-02-14T04:50:26.063Z,99027.81
2023-02-14T04:52:53.650Z,99033.03
2023-02-14T04:55:20.627Z,99042.41
2023-02-14T04:57:47.449Z,99039.75
2023-02-14T05:00:15.067Z,99034.25
2023-02-14T05:02:41.931Z,99035.97
2023-02-14T05:05:09.014Z,99037.16
2023-02-14T05:07:36.156Z,99038.59
2023-02-14T05:10:04.741Z,99032.72
2023-02-14T05:12:31.592Z,99046.13
2023-02-14T05:14:58.500Z,99043.94
2023-02-14T05:17:25.485Z,99054.81
2023-02-14T05:19:52.530Z,99056.09
2023-02-14T05:22:19.408Z,99060.00
2023-02-14T05:24:46.319Z,99061.03
2023-02-14T05:27:13.226Z,99048.88
2023-02-14T05:29:40.090Z,99055.72
2023-02-14T05:32:07.079Z,99052.50
2023-02-14T05:34:34.248Z,99054.16
2023-02-14T05:37:03.163Z,99049.97
2023-02-14T05:39:30.117Z,99053.31
2023-02-14T05:41:59.221Z,99053.56
2023-02-14T05:44:26.276Z,99054.56
2023-02-14T05:46:54.959Z,99052.59
2023-02-14T05:49:21.908Z,99047.28
2023-02-14T05:51:48.834Z,99054.47
2023-02-14T05:54:15.841Z,99052.09
2023-02-14T05:56:42.721Z,99055.13
2023-02-14T05:59:09.614Z,99047.78
2023-02-14T06:01:36.544Z,99037.84
2023-02-14T06:04:03.680Z,99042.81
2023-02-14T06:06:30.588Z,99029.84
2023-02-14T06:08:57.538Z,99029.41
2023-02-14T06:11:24.494Z,99040.53
2023-02-14T06:13:51.464Z,99035.84
2023-02-14T06:16:18.360Z,99037.22
2023-02-14T06:18:45.381Z,99023.91
2023-02-14T06:21:12.293Z,99025.31
2023-02-14T06:23:39.230Z,99031.13
2023-02-14T06:26:06.166Z,99028.41
2023-02-14T06:28:33.024Z,99038.44
2023-02-14T06:31:00.222Z,99043.88
2023-02-14T06:33:27.425Z,99042.81
2023-02-14T06:35:54.765Z,99043.06
2023-02-14T06:38:21.778Z,99039.94
2023-02-14T06:40:48.726Z,99041.91
2023-02-14T06:43:15.726Z,99050.44
2023-02-14T06:45:43.897Z,99037.91
2023-02-14T06:48:11.011Z,99041.94
2023-02-14T06:50:38.110Z,99046.63
2023-02-14T06:53:06.336Z,99040.38
2023-02-14T06:55:33.357Z,99046.41
2023-02-14T06:58:00.234Z,99030.59
2023-02-14T07:00:27.295Z,99044.13
2023-02-14T07:02:54.308Z,99047.81
2023-02-14T07:05:22.011Z,99038.44
2023-02-14T07:07:49.220Z,99042.53
2023-02-14T07:10:16.330Z,99036.56
2023-02-14T07:12:43.271Z,99045.16
2023-02-14T07:15:12.472Z,99037.06
2023-02-14T07:17:40.364Z,99037.22
2023-02-14T07:20:09.465Z,99029.72
2023-02-14T07:22:37.166Z,99026.75
2023-02-14T07:25:05.665Z,99038.13
2023-02-14T07:27:33.158Z,99028.81
2023-02-14T07:30:00.037Z,99034.94
2023-02-14T07:32:27.072Z,99029.47
2023-02-14T07:34:54.143Z,99013.41
2023-02-14T07:37:21.379Z,99027.47
2023-02-14T07:39:48.272Z,99026.47
2023-02-14T07:42:15.325Z,99027.78
2023-02-14T07:44:42.422Z,99030.03
2023-02-14T07:47:10.088Z,99025.13
2023-02-14T07:49:37.434Z,99027.41
2023-02-14T07:52:04.895Z,99019.22
2023-02-14T07:54:31.846Z,99011.91
2023-02-14T07:56:58.790Z,99008.13
2023-02-14T07:59:26.153Z,99014.22
2023-02-14T08:01:53.608Z,99017.38
2023-02-14T08:04:21.452Z,99014.03
2023-02-14T08:06:48.299Z,99014.28
2023-02-14T08:09:24.801Z,99014.22
2023-02-14T08:12:13.817Z,99015.22
2023-02-14T08:14:41.330Z,99012.84
2023-02-14T08:17:10.182Z,99010.00
2023-02-14T08:19:37.593Z,99009.81
2023-02-14T08:22:05.030Z,99008.13
2023-02-14T08:24:32.734Z,99008.44
2023-02-14T08:26:59.883Z,99010.94
2023-02-14T08:29:26.868Z,98997.97
2023-02-14T08:31:53.944Z,98995.63
2023-02-14T08:34:20.953Z,99000.84
2023-02-14T08:36:47.914Z,98999.72
2023-02-14T08:39:14.791Z,99002.09
2023-02-14T08:41:41.680Z,98999.56
2023-02-14T08:44:08.640Z,99001.78
2023-02-14T08:46:36.237Z,99001.59
2023-02-14T08:49:03.239Z,98999.25
2023-02-14T08:51:30.223Z,98993.59
2023-02-14T08:53:57.130Z,98991.25
2023-02-14T08:56:24.953Z,98991.81
2023-02-14T08:58:53.378Z,98983.69
2023-02-14T09:01:20.749Z,98988.25
2023-02-14T09:03:47.937Z,98982.00
2023-02-14T09:06:17.692Z,98981.72
2023-02-14T09:08:45.656Z,98977.56
2023-02-14T09:11:15.873Z,98975.69
2023-02-14T09:13:43.498Z,98964.97
2023-02-14T09:16:12.491Z,98971.72
2023-02-14T09:18:40.275Z,98965.94
2023-02-14T09:21:10.036Z,98968.22
2023-02-14T09:23:37.807Z,98966.16
2023-02-14T09:26:07.992Z,98967.34
2023-02-14T09:28:36.009Z,98956.97
2023-02-14T09:31:15.301Z,98966.44
2023-02-14T09:33:42.945Z,98966.59
2023-02-14T09:36:16.007Z,98959.03
2023-02-14T09:38:42.955Z,98965.09
2023-02-14T09:41:17.307Z,98963.50
2023-02-14T09:44:10.118Z,98961.59
2023-02-14T10:18:13.796Z,98937.03
2023-02-14T10:20:48.821Z,98928.75
2023-02-14T10:23:27.127Z,98926.06
2023-02-14T10:26:22.062Z,98925.88
2023-02-14T10:28:50.304Z,98924.88
2023-02-14T10:31:44.208Z,98919.25
2023-02-14T10:34:22.941Z,98922.81
2023-02-14T10:37:02.072Z,98919.25
2023-02-14T10:39:50.108Z,98917.50
2023-02-14T10:42:43.637Z,98923.72
2023-02-14T10:45:33.673Z,98918.44
2023-02-14T10:48:16.777Z,98906.56
2023-02-14T10:50:49.409Z,98902.09
2023-02-14T10:53:44.489Z,98907.31
2023-02-14T10:56:22.612Z,98912.34
2023-02-14T10:58:52.482Z,98915.53
2023-02-14T11:01:20.185Z,98913.13
2023-02-14T11:03:55.029Z,98913.22
2023-02-14T11:06:22.456Z,98904.63
2023-02-14T11:08:49.468Z,98900.19
2023-02-14T11:11:35.309Z,98895.44
2023-02-14T11:14:26.822Z,98904.63
2023-02-14T11:16:55.177Z,98895.31
2023-02-14T11:19:23.893Z,98891.31
2023-02-14T11:21:52.030Z,98892.28
2023-02-14T11:24:20.350Z,98887.78
2023-02-14T11:26:50.016Z,98880.69
2023-02-14T11:29:25.481Z,98889.34
2023-02-14T11:31:52.896Z,98879.09
2023-02-14T11:34:36.869Z,98882.00
2023-02-14T11:37:16.049Z,98879.41
2023-02-14T11:39:43.179Z,98886.13
2023-02-14T11:42:13.005Z,98875.06
2023-02-14T11:44:56.025Z,98878.25
2023-02-14T11:47:32.481Z,98879.31
2023-02-14T11:50:23.560Z,98867.94
2023-02-14T11:52:56.461Z,98883.41
2023-02-14T11:55:28.154Z,98884.31
2023-02-14T11:57:56.605Z,98879.53
2023-02-14T12:00:26.885Z,98871.66
2023-02-14T12:02:55.331Z,98863.28
2023-02-14T12:05:33.889Z,98864.31
2023-02-14T12:08:04.503Z,98860.34
2023-02-14T12:10:36.706Z,98865.25
2023-02-14T12:13:25.537Z,98852.06
2023-02-14T12:15:54.910Z,98849.06
2023-02-14T12:18:42.658Z,98857.94
2023-02-14T12:21:16.196Z,98850.78
2023-02-14T12:23:49.136Z,98840.91
2023-02-14T12:26:28.356Z,98837.41
2023-02-14T12:29:02.008Z,98843.28
2023-02-14T12:31:30.119Z,98845.59
2023-02-14T12:33:57.317Z,98843.50
2023-02-14T12:36:42.487Z,98841.50
2023-02-14T12:39:18.341Z,98826.53
2023-02-14T12:41:45.245Z,98826.28
2023-02-14T12:44:35.364Z,98832.00
2023-02-14T12:47:24.335Z,98819.13
2023-02-14T12:50:10.684Z,98811.63
2023-02-14T12:53:12.570Z,98809.88
2023-02-14T12:55:39.559Z,98816.53
2023-02-14T12:58:19.181Z,98803.75
2023-02-14T13:00:54.663Z,98813.00
2023-02-14T13:03:36.437Z,98803.69
2023-02-14T13:06:29.411Z,98812.78
2023-02-14T13:09:08.350Z,98814.13
2023-02-14T13:11:53.707Z,98815.69
2023-02-14T13:14:41.612Z,98820.06
2023-02-14T13:17:23.501Z,98812.25
2023-02-14T13:20:08.449Z,98802.34
2023-02-14T13:22:36.761Z,98807.88
2023-02-14T13:25:13.674Z,98805.81
2023-02-14T13:27:41.633Z,98808.13
2023-02-14T13:30:43.204Z,98811.59
2023-02-14T13:33:35.161Z,98814.25
2023-02-14T13:36:07.889Z,98816.25
2023-02-14T13:38:43.539Z,98819.03
2023-02-14T13:41:11.568Z,98818.34
2023-02-14T13:44:01.924Z,98825.28
2023-02-14T13:46:35.351Z,98814.22
2023-02-14T13:49:20.472Z,98811.38
2023-02-14T13:51:53.612Z,98819.53
2023-02-14T13:54:34.497Z,98818.78
2023-02-14T13:57:22.927Z,98816.81
2023-02-14T14:00:21.444Z,98819.22
2023-02-14T14:02:56.173Z,98820.66
2023-02-14T14:05:40.502Z,98803.97
2023-02-14T14:08:27.556Z,98808.41
2023-02-14T14:10:57.599Z,98806.66
2023-02-14T14:13:42.866Z,98807.69
2023-02-14T14:16:28.087Z,98799.66
2023-02-14T14:19:10.552Z,98801.81
2023-02-14T14:21:58.399Z,98810.88
2023-02-14T14:24:30.528Z,98799.38
2023-02-14T14:26:57.371Z,98792.25
2023-02-14T14:29:38.542Z,98790.88
2023-02-14T14:32:19.464Z,98787.03
2023-02-14T14:34:58.114Z,98791.94
2023-02-14T14:37:28.874Z,98793.63
2023-02-14T14:40:01.498Z,98791.66
2023-02-14T14:42:32.452Z,98793.03
2023-02-14T14:45:23.371Z,98794.19
2023-02-14T14:47:54.338Z,98786.72
2023-02-14T14:50:23.188Z,98783.25
2023-02-14T14:52:54.209Z,98782.63
2023-02-14T14:55:27.274Z,98772.81
2023-02-14T14:57:57.174Z,98774.25
2023-02-14T15:00:34.999Z,98777.88
2023-02-14T15:03:15.633Z,98769.44
2023-02-14T15:05:45.462Z,98772.19
2023-02-14T15:08:33.136Z,98778.47
2023-02-14T15:11:09.188Z,98777.53
2023-02-14T15:13:49.803Z,98789.22
2023-02-14T15:16:32.973Z,98795.44
2023-02-14T15:19:12.950Z,98798.47
2023-02-14T15:21:44.715Z,98801.66
2023-02-14T15:24:16.187Z,98804.06
2023-02-14T15:26:45.620Z,98798.75
2023-02-14T15:29:25.005Z,98796.16
2023-02-14T15:31:52.860Z,98805.81
2023-02-14T15:34:24.596Z,98798.28
2023-02-14T15:36:59.278Z,98808.03
2023-02-14T15:39:40.393Z,98804.50
2023-02-14T15:42:22.868Z,98797.66
2023-02-14T15:44:49.925Z,98796.06
2023-02-14T15:47:17.064Z,98800.25
2023-02-14T15:49:46.734Z,98802.84
2023-02-14T15:52:16.436Z,98800.72
2023-02-14T15:54:46.711Z,98799.25
2023-02-14T15:57:39.938Z,98821.00
2023-02-14T16:00:17.098Z,98822.16
2023-02-14T16:02:48.094Z,98832.19
2023-02-14T16:05:22.033Z,98834.13
2023-02-14T16:08:04.245Z,98833.38
2023-02-14T16:10:36.898Z,98837.88
2023-02-14T16:13:12.652Z,98836.75
2023-02-14T16:15:44.192Z,98845.63
2023-02-14T16:18:34.294Z,98861.97
2023-02-14T16:21:25.317Z,98857.63
2023-02-14T16:24:07.383Z,98861.13
2023-02-14T16:26:38.020Z,98865.31
2023-02-14T16:29:14.904Z,98865.59
2023-02-14T16:34:41.276Z,98869.63
2023-02-14T16:37:19.030Z,98867.16
2023-02-14T16:39:46.168Z,98866.44
2023-02-14T16:42:17.254Z,98868.06
2023-02-14T16:44:45.699Z,98868.69
2023-02-14T16:47:14.931Z,98876.28
2023-02-14T16:49:42.248Z,98880.59
2023-02-14T16:52:16.002Z,98888.78
2023-02-14T16:54:42.965Z,98887.13
2023-02-14T16:57:23.838Z,98884.16
2023-02-14T16:59:51.132Z,98890.63
2023-02-14T17:02:19.232Z,98887.53
2023-02-14T17:04:46.354Z,98883.69
2023-02-14T17:07:15.818Z,98890.94
2023-02-14T17:09:49.808Z,98894.81
2023-02-14T17:12:21.329Z,98894.72
2023-02-14T17:14:51.909Z,98898.69
2023-02-14T17:17:19.467Z,98897.59
2023-02-14T17:19:46.587Z,98896.13
2023-02-14T17:22:14.890Z,98900.72
2023-02-14T17:24:41.859Z,98905.78
2023-02-14T17:27:08.883Z,98902.56
2023-02-14T17:29:36.138Z,98899.00
2023-02-14T17:32:03.216Z,98893.53
2023-02-14T17:34:33.849Z,98907.75
2023-02-14T17:37:00.811Z,98906.41
2023-02-14T17:39:27.676Z,98901.81
2023-02-14T17:41:56.780Z,98906.16
2023-02-14T17:44:24.207Z,98905.81
2023-02-14T17:46:51.295Z,98899.50
2023-02-14T17:49:18.309Z,98896.78
2023-02-14T17:51:45.223Z,98897.97
2023-02-14T17:54:12.614Z,98896.09
2023-02-14T17:56:39.642Z,98891.06
2023-02-14T17:59:06.586Z,98893.00
2023-02-14T18:01:34.589Z,98903.56
2023-02-14T18:04:02.316Z,98907.50
2023-02-14T18:06:29.176Z,98914.00
2023-02-14T18:08:57.178Z,98910.41
2023-02-14T18:11:26.425Z,98910.97
2023-02-14T18:13:55.368Z,98902.06
2023-02-14T18:16:22.900Z,98907.16
2023-02-14T18:18:49.855Z,98894.97
2023-02-14T18:21:20.443Z,98904.13
2023-02-14T18:23:48.066Z,98911.56
2023-02-14T18:26:18.062Z,98913.72
2023-02-14T18:28:45.649Z,98914.00
2023-02-14T18:31:15.741Z,98916.16
2023-02-14T18:33:42.891Z,98907.44
2023-02-14T18:36:12.707Z,98909.38
2023-02-14T18:38:41.140Z,98911.69
2023-02-14T18:41:10.668Z,98909.31
2023-02-14T18:43:38.260Z,98906.50
2023-02-14T18:46:06.983Z,98909.47
2023-02-14T18:48:34.845Z,98902.91
2023-02-14T18:51:06.259Z,98905.69
2023-02-14T18:53:33.262Z,98906.59
2023-02-14T18:56:04.212Z,98927.47
2023-02-14T18:58:31.115Z,98915.16
2023-02-14T19:00:58.195Z,98917.66
2023-02-14T19:03:25.137Z,98922.41
2023-02-14T19:05:53.312Z,98913.94
2023-02-14T19:08:20.342Z,98915.44
2023-02-14T19:10:47.274Z,98910.44
2023-02-14T19:13:14.213Z,98914.16
2023-02-14T19:15:41.231Z,98918.47
2023-02-14T19:18:08.296Z,98909.00
2023-02-14T19:20:35.204Z,98919.88
2023-02-14T19:23:02.443Z,98916.38
2023-02-14T19:25:32.623Z,98920.56
2023-02-14T19:27:59.755Z,98917.66
2023-02-14T19:30:26.752Z,98924.50
2023-02-14T19:32:53.756Z,98921.34
2023-02-14T19:35:20.772Z,98922.75
2023-02-14T19:37:47.885Z,98914.50
2023-02-14T19:40:15.247Z,98918.50
2023-02-14T19:42:42.186Z,98906.66
2023-02-14T19:45:09.644Z,98904.19
2023-02-14T19:47:46.538Z,98901.88
2023-02-14T19:50:13.927Z,98902.00
2023-02-14T19:52:41.160Z,98903.78
2023-02-14T19:55:08.667Z,98903.59
2023-02-14T19:57:35.528Z,98916.00
2023-02-14T20:00:04.130Z,98917.81
2023-02-14T20:02:38.441Z,98920.47
2023-02-14T20:05:05.629Z,98928.88
2023-02-14T20:07:32.706Z,98914.16
2023-02-14T20:09:59.646Z,98928.69
2023-02-14T20:12:26.580Z,98911.94
2023-02-14T20:14:54.883Z,98924.97
2023-02-14T20:17:21.951Z,98922.06
2023-02-14T20:19:49.263Z,98926.25
2023-02-14T20:22:16.371Z,98930.00
2023-02-14T20:24:43.309Z,98919.16
2023-02-14T20:27:10.349Z,98919.19
2023-02-14T20:29:39.796Z,98922.75
2023-02-14T20:32:06.889Z,98922.09
2023-02-14T20:34:33.966Z,98924.81
2023-02-14T20:37:01.012Z,98919.09
2023-02-14T20:39:30.607Z,98927.84
2023-02-14T20:41:57.850Z,98934.53
2023-02-14T20:44:24.926Z,98931.78
2023-02-14T20:46:54.318Z,98924.03
2023-02-14T20:49:23.002Z,98925.31
2023-02-14T20:51:50.729Z,98927.78
2023-02-14T20:54:19.285Z,98936.03
2023-02-14T20:56:46.573Z,98939.06
2023-02-14T20:59:14.201Z,98946.44
2023-02-14T21:01:41.304Z,98952.22
2023-02-14T21:04:08.313Z,98957.13
2023-02-14T21:06:36.294Z,98962.63
2023-02-14T21:09:04.406Z,98955.50
2023-02-14T21:11:31.480Z,98948.19
2023-02-14T21:14:00.105Z,98956.03
2023-02-14T21:16:29.358Z,98956.41
2023-02-14T21:19:01.304Z,98958.69
2023-02-14T21:21:36.530Z,98954.44
2023-02-14T21:24:11.975Z,98949.16
2023-02-14T21:26:39.540Z,98951.25
2023-02-14T21:29:06.828Z,98967.50
2023-02-14T21:31:34.538Z,98970.28
2023-02-14T21:34:02.629Z,98966.97
2023-02-14T21:36:31.985Z,98971.38
2023-02-14T21:39:00.025Z,98981.75
2023-02-14T21:41:31.132Z,98975.72
2023-02-14T21:43:59.735Z,98985.06
2023-02-14T21:46:31.181Z,98973.91
2023-02-14T21:49:18.852Z,98977.66
2023-02-14T21:51:47.108Z,98983.03
2023-02-14T21:54:15.005Z,98979.78
2023-02-14T21:56:42.767Z,98992.47
2023-02-14T21:59:10.402Z,98988.53
2023-02-14T22:01:39.619Z,98977.59
2023-02-14T22:04:09.380Z,98988.38
2023-02-14T22:06:38.463Z,98984.28
2023-02-14T22:09:06.063Z,98983.44
2023-02-14T22:11:33.521Z,98985.78
2023-02-14T22:14:00.831Z,98996.78
2023-02-14T22:16:28.112Z,98987.34
2023-02-14T22:18:55.254Z,98984.88
2023-02-14T22:21:25.632Z,98991.03
2023-02-14T22:23:54.260Z,98993.53
2023-02-14T22:26:24.547Z,98994.44
2023-02-14T22:28:57.109Z,98988.22
2023-02-14T22:31:25.506Z,98978.00
2023-02-14T22:33:52.552Z,98979.69
2023-02-14T22:36:19.869Z,98988.84
2023-02-14T22:38:46.884Z,98993.38
2023-02-14T22:41:16.881Z,98991.28
2023-02-14T22:43:44.516Z,98989.69
2023-02-14T22:46:21.338Z,98979.38
2023-02-14T22:48:49.499Z,98991.53
2023-02-14T22:51:36.016Z,98992.28
2023-02-14T22:54:08.438Z,98983.84
2023-02-14T22:56:41.121Z,98995.78
2023-02-14T22:59:18.794Z,98990.16
2023-02-14T23:01:46.514Z,98994.50
2023-02-14T23:04:14.949Z,98992.41
2023-02-14T23:06:42.087Z,98979.53
2023-02-14T23:09:11.355Z,98984.59
2023-02-14T23:11:40.294Z,98987.13
2023-02-14T23:14:25.903Z,98981.16
2023-02-14T23:17:25.159Z,98976.88
2023-02-14T23:20:10.730Z,98986.22
2023-02-14T23:22:40.295Z,98989.38
2023-02-14T23:25:12.285Z,98990.28
2023-02-14T23:27:43.260Z,98986.59
2023-02-14T23:30:13.996Z,98985.88
2023-02-14T23:32:41.519Z,98978.38
2023-02-14T23:35:09.009Z,98977.34
2023-02-14T23:37:35.920Z,98980.03
2023-02-14T23:40:04.098Z,98991.00
2023-02-14T23:42:31.050Z,98975.97
2023-02-14T23:45:18.074Z,98986.47
2023-02-14T23:47:44.909Z,98981.06
2023-02-14T23:50:11.999Z,98984.13
2023-02-14T23:52:41.888Z,98985.09
2023-02-14T23:55:09.372Z,98982.38
2023-02-14T23:57:37.626Z,98985.22
